Renee' T. Whatley — WDD5243 — position and weather

sailwx.info

Track history (hours):
 
Tides and Currents Weather Stations Pressure Air Temp Water Temp Dewpoint Dewpoint Depression Visibility Wind Speed Wind Dir Waves Ship Positions

Renee' T. Whatley

Owner: Terral RiverService, Inc., Lake Providence, LA. More information available from US FCC via Universal Licensing System and Coast Guard Vessel Documentation Center.

Last reported at 2014-Sep-28 16:31 UTC. Time now 2014-Oct-25 02:54 UTC.
Position N 29°55' W 091°13'.
Warning: this ship's position is 26 days out of date.

Length 11 m.

Type: Tug. MMSI: 367155550.

Date/timePositionNaut miles runAvg speedWind from/ knotsBaromVisibWave heightAir tempDewpointWater temp
2014-Sep-28 16:31N 29°55' W 091°13'6 5.6
2014-Sep-28 15:32N 29°50' W 091°11'6 6.3
2014-Sep-28 14:33N 29°44' W 091°11'5 4.8
2014-Sep-28 13:33N 29°40' W 091°14'4 4.0
2014-Sep-28 12:33N 29°38' W 091°19'7 6.5
2014-Sep-28 11:33N 29°40' W 091°26'7 6.5
2014-Sep-28 10:30N 29°43' W 091°33'  
2014-Sep-24 15:20N 29°39' W 091°25'5 6.1
2014-Sep-24 14:33N 29°38' W 091°20'5 5.4
2014-Sep-24 13:33N 29°40' W 091°14'5 5.1
2014-Sep-24 12:33N 29°44' W 091°11'4 4.3
2014-Sep-24 11:33N 29°48' W 091°10'5 5.2
2014-Sep-24 10:33N 29°53' W 091°13'24 0.5
2014-Sep-22 10:14N 30°17' W 091°13'0 0.0
2014-Sep-22 09:33N 30°17' W 091°13'0 0.1
2014-Sep-22 06:29N 30°17' W 091°13'  
Track history (hours):
 
Tides and Currents Weather Stations Pressure Air Temp Water Temp Dewpoint Dewpoint Depression Visibility Wind Speed Wind Dir Waves Ship Positions

Renee' T. Whatley

Owner: Terral RiverService, Inc., Lake Providence, LA. More information available from US FCC via Universal Licensing System and Coast Guard Vessel Documentation Center.

Last reported at 2014-Sep-28 16:31 UTC. Time now 2014-Oct-25 02:54 UTC.
Position N 29°55' W 091°13'.
Warning: this ship's position is 26 days out of date.

Length 11 m.

Type: Tug. MMSI: 367155550.

Date/timePositionNaut miles runAvg speedWind from/ knotsBaromVisibWave heightAir tempDewpointWater temp
2014-Sep-28 16:31N 29°55' W 091°13'6 5.6
2014-Sep-28 15:32N 29°50' W 091°11'6 6.3
2014-Sep-28 14:33N 29°44' W 091°11'5 4.8
2014-Sep-28 13:33N 29°40' W 091°14'4 4.0
2014-Sep-28 12:33N 29°38' W 091°19'7 6.5
2014-Sep-28 11:33N 29°40' W 091°26'7 6.5
2014-Sep-28 10:30N 29°43' W 091°33'  
2014-Sep-24 15:20N 29°39' W 091°25'5 6.1
2014-Sep-24 14:33N 29°38' W 091°20'5 5.4
2014-Sep-24 13:33N 29°40' W 091°14'5 5.1
2014-Sep-24 12:33N 29°44' W 091°11'4 4.3
2014-Sep-24 11:33N 29°48' W 091°10'5 5.2
2014-Sep-24 10:33N 29°53' W 091°13'24 0.5
2014-Sep-22 10:14N 30°17' W 091°13'0 0.0
2014-Sep-22 09:33N 30°17' W 091°13'0 0.1
2014-Sep-22 06:29N 30°17' W 091°13'  

Dump ship's entire track history